Warning: Javascript must be enabled to use all the features on this page!


Page Loading - Please Wait...

Click to hideNews Bulletins

Peak Streamflow for the Nation

USGS 11454000 PUTAH C NR WINTERS CA

Yolo County, California
Hydrologic Unit Code 18020162
Latitude  38°30'55", Longitude 122°04'51" NAD27
Drainage area 574  square miles
Gage datum 160.75 feet above NGVD29
Output formats
Table
Graph
Tab-separated file
peakfq (watstore) format
Reselect output format
Water
Year
Date Gage
Height
(feet)
Stream-
flow
(cfs)
1931 1931-01-23 11.703 4,820
1932 1931-12-27 21.803 34,100
1933 1933-01-27 14.673 10,500
1934 1933-12-30 15.183 11,700
1935 1935-03-06 23.203 41,000
1936 1936-02-21 22.853 39,200
1937 1937-02-04 25.403 50,800
1938 1937-12-11 24.803 48,100
1939 1939-03-09 7.953 1,260
1940 1940-02-27 29.503 81,000
1941 1941-04-04 24.30 41,400
1942 1942-02-06 28.55 67,200
1943 1943-01-21 29.00 70,300
1944 1944-03-04 21.40 29,600
1945 1945-02-01 19.38 21,700
1946 1945-12-27 17.88 16,500
1947 1947-02-12 17.30 14,800
1948 1948-03-24 13.70 6,540
1949 1949-03-11 19.67 22,700
1950 1950-02-04 19.27 21,300
1951 1950-12-03 24.32 41,600
1952 1952-01-14 20.60 25,100
1953 1952-12-07 25.08 45,700
1954 1954-01-17 22.75 33,000
1955 1954-11-15 12.78 4,960
1956 1955-12-22 26.73 55,400
1957 1957-02-24 6.70 3686
1958 1958-02-18 9.14 1,2406
1959 1959-02-16 8.44 9066
1960 1960-06-28 6.84 3976
1961 1961-07-04 7.55 5856
1962 1962-06-28 7.38 5246
1963 1963-01-31 8.77 1,0606
1964 1964-07-19 7.75 6586
1965 1965-01-07 14.96 7,7406
1966 1966-09-11 8.112 7786
1967 1967-01-31 14.69 6,3906
1968 1968-03-17 9.23 1,1806
1969 1969-02-15 14.72 6,4106
1970 1970-01-24 18.85 16,3006
1971 1971-03-28 9.10 1,1006
1972 1972-07-16 8.22 7576
1973 1973-03-21 9.13 1,1406
1974 1974-03-30 15.48 7,7006
1975 1975-03-25 12.98 3,8706
1976 1976-05-13 8.66 9526
1977 1977-04-25 8.30 8046
1978 1978-01-14 9.34 1,1306
1979 1979-07-16 8.46 7906
1980 1980-02-19 10.19 1,6106
1981 1981-06-25 8.80 1,0106
1982 1982-04-12 16.63 9,9306
1983 1983-03-02 19.55 18,7006
1984 1983-12-26 14.93 6,5806
1985 1985-07-12 8.38 8536
1986 1986-03-16 15.00 6,7006
1987 1987-06-25 8.25 8006
1988 1988-06-03 8.15 7646
1989 1989-06-23 8.21 7456
1990 1990-07-14 8.14 7216
1991 1991-06-09 7.82 6456
1992 1992-08-23 8.01 7356
1993 1993-01-20 8.47 8396
1994 1994-06-24 8.31 7356
1995 1995-01-09 12.91 2,7706
1996 1996-03-13 13.22 3,8506
1997 1997-01-26 18.40 14,8006
1998 1998-02-08 17.12 11,1006
1999 1999-03-26 10.34 1,8306
2000 2000-06-14 9.84 1,3006
2001 2001-06-22 8.80 8256
2002 2002-07-26 8.63 7646
2003 2002-12-16 9.982 1,3806
2004 2004-02-18 16.18 8,8006
2005 2005-03-23 11.36 2,0506
2006 2006-03-07 15.60 7,2006
2007 2007-07-31 8.65 8176
2008 2008-06-20 8.52 7316
2009 2009-06-02 8.52 7526
2010 2010-01-20 8.75 8146
2011 2011-03-20 8.96 8936
2012 2012-06-18 8.77 8216
2013 2013-06-10 8.77 8216
2014 2014-07-01 8.81 8256
2015 2015-07-17 8.68 7356
2016 2016-07-01 8.49 6866
2017 2017-02-21 16.17 7,1806
2018 2018-06-28 8.33 6656
2019 2019-02-27 16.71 8,4606
2020 2020-07-08 8.44 7466
?
  Peak Gage-Height Qualification Codes.
?
  Peak Streamflow Qualification Codes.